sensor_id;sensor_type;location;lat;lon;timestamp;P1;durP1;ratioP1;P2;durP2;ratioP2
34920;SDS011;21128;50.016;20.002;2024-02-15T00:00:02;55.00;;;28.10;;
34920;SDS011;21128;50.016;20.002;2024-02-15T00:02:30;55.20;;;28.90;;
34920;SDS011;21128;50.016;20.002;2024-02-15T00:04:57;64.40;;;29.00;;
34920;SDS011;21128;50.016;20.002;2024-02-15T00:07:24;55.90;;;28.30;;
34920;SDS011;21128;50.016;20.002;2024-02-15T00:09:50;61.70;;;27.90;;
34920;SDS011;21128;50.016;20.002;2024-02-15T00:12:18;54.30;;;30.00;;
34920;SDS011;21128;50.016;20.002;2024-02-15T00:14:45;58.50;;;30.10;;
34920;SDS011;21128;50.016;20.002;2024-02-15T00:17:12;57.40;;;29.20;;
34920;SDS011;21128;50.016;20.002;2024-02-15T00:19:39;59.80;;;29.80;;
34920;SDS011;21128;50.016;20.002;2024-02-15T00:22:08;52.60;;;27.80;;
34920;SDS011;21128;50.016;20.002;2024-02-15T00:24:38;59.00;;;30.00;;
34920;SDS011;21128;50.016;20.002;2024-02-15T00:27:05;59.70;;;29.90;;
34920;SDS011;21128;50.016;20.002;2024-02-15T00:29:32;53.10;;;28.20;;
34920;SDS011;21128;50.016;20.002;2024-02-15T00:32:00;47.60;;;26.50;;
34920;SDS011;21128;50.016;20.002;2024-02-15T00:34:28;53.20;;;26.90;;
34920;SDS011;21128;50.016;20.002;2024-02-15T00:36:54;54.60;;;27.90;;
34920;SDS011;21128;50.016;20.002;2024-02-15T00:39:21;51.60;;;27.10;;
34920;SDS011;21128;50.016;20.002;2024-02-15T00:41:48;52.50;;;27.00;;
34920;SDS011;21128;50.016;20.002;2024-02-15T00:44:15;67.70;;;29.50;;
34920;SDS011;21128;50.016;20.002;2024-02-15T00:46:42;55.00;;;26.60;;
34920;SDS011;21128;50.016;20.002;2024-02-15T00:49:08;55.90;;;29.20;;
34920;SDS011;21128;50.016;20.002;2024-02-15T00:51:35;63.60;;;29.50;;
34920;SDS011;21128;50.016;20.002;2024-02-15T00:54:03;55.30;;;27.90;;
34920;SDS011;21128;50.016;20.002;2024-02-15T00:56:30;54.20;;;27.80;;
34920;SDS011;21128;50.016;20.002;2024-02-15T00:58:59;57.50;;;28.80;;
34920;SDS011;21128;50.016;20.002;2024-02-15T01:01:27;57.00;;;28.40;;
34920;SDS011;21128;50.016;20.002;2024-02-15T01:03:54;56.80;;;28.60;;
34920;SDS011;21128;50.016;20.002;2024-02-15T01:06:21;57.40;;;30.50;;
34920;SDS011;21128;50.016;20.002;2024-02-15T01:08:49;58.60;;;28.70;;
34920;SDS011;21128;50.016;20.002;2024-02-15T01:11:15;58.40;;;31.10;;
34920;SDS011;21128;50.016;20.002;2024-02-15T01:13:43;51.70;;;29.60;;
34920;SDS011;21128;50.016;20.002;2024-02-15T01:16:10;58.90;;;30.80;;
34920;SDS011;21128;50.016;20.002;2024-02-15T01:18:37;59.00;;;28.50;;
34920;SDS011;21128;50.016;20.002;2024-02-15T01:21:04;51.30;;;27.20;;
34920;SDS011;21128;50.016;20.002;2024-02-15T01:23:31;53.70;;;26.10;;
34920;SDS011;21128;50.016;20.002;2024-02-15T01:25:58;48.40;;;25.50;;
34920;SDS011;21128;50.016;20.002;2024-02-15T01:28:25;52.30;;;26.30;;
34920;SDS011;21128;50.016;20.002;2024-02-15T01:30:52;51.20;;;26.60;;
34920;SDS011;21128;50.016;20.002;2024-02-15T01:33:21;53.70;;;26.60;;
34920;SDS011;21128;50.016;20.002;2024-02-15T01:35:47;46.80;;;24.40;;
34920;SDS011;21128;50.016;20.002;2024-02-15T01:38:15;55.60;;;25.70;;
34920;SDS011;21128;50.016;20.002;2024-02-15T01:40:41;50.10;;;26.30;;
34920;SDS011;21128;50.016;20.002;2024-02-15T01:43:09;50.00;;;26.70;;
34920;SDS011;21128;50.016;20.002;2024-02-15T01:45:36;56.50;;;26.10;;
34920;SDS011;21128;50.016;20.002;2024-02-15T01:48:03;48.40;;;24.50;;
34920;SDS011;21128;50.016;20.002;2024-02-15T01:50:30;56.50;;;26.10;;
34920;SDS011;21128;50.016;20.002;2024-02-15T01:53:01;47.60;;;25.90;;
34920;SDS011;21128;50.016;20.002;2024-02-15T01:55:31;47.40;;;26.20;;
34920;SDS011;21128;50.016;20.002;2024-02-15T01:58:00;50.50;;;25.90;;
34920;SDS011;21128;50.016;20.002;2024-02-15T02:00:28;51.10;;;25.40;;
34920;SDS011;21128;50.016;20.002;2024-02-15T02:02:56;48.30;;;23.70;;
34920;SDS011;21128;50.016;20.002;2024-02-15T02:05:28;47.50;;;24.30;;
34920;SDS011;21128;50.016;20.002;2024-02-15T02:07:57;39.40;;;22.10;;
34920;SDS011;21128;50.016;20.002;2024-02-15T02:10:25;39.20;;;21.80;;
34920;SDS011;21128;50.016;20.002;2024-02-15T02:12:53;42.30;;;22.40;;
34920;SDS011;21128;50.016;20.002;2024-02-15T02:15:21;44.60;;;21.80;;
34920;SDS011;21128;50.016;20.002;2024-02-15T02:17:50;41.10;;;22.00;;
34920;SDS011;21128;50.016;20.002;2024-02-15T02:20:17;42.00;;;22.40;;
34920;SDS011;21128;50.016;20.002;2024-02-15T02:22:45;43.80;;;23.10;;
34920;SDS011;21128;50.016;20.002;2024-02-15T02:25:14;37.10;;;21.40;;
34920;SDS011;21128;50.016;20.002;2024-02-15T02:27:42;43.40;;;22.60;;
34920;SDS011;21128;50.016;20.002;2024-02-15T02:30:13;37.70;;;19.80;;
34920;SDS011;21128;50.016;20.002;2024-02-15T02:32:45;35.90;;;19.70;;
34920;SDS011;21128;50.016;20.002;2024-02-15T02:35:12;36.40;;;17.90;;
34920;SDS011;21128;50.016;20.002;2024-02-15T02:37:39;34.30;;;17.80;;
34920;SDS011;21128;50.016;20.002;2024-02-15T02:40:06;38.60;;;18.40;;
34920;SDS011;21128;50.016;20.002;2024-02-15T02:42:56;35.10;;;18.70;;
34920;SDS011;21128;50.016;20.002;2024-02-15T02:45:22;30.80;;;18.60;;
34920;SDS011;21128;50.016;20.002;2024-02-15T02:47:49;35.80;;;18.20;;
34920;SDS011;21128;50.016;20.002;2024-02-15T02:50:16;27.20;;;16.20;;
34920;SDS011;21128;50.016;20.002;2024-02-15T02:52:44;34.00;;;17.00;;
34920;SDS011;21128;50.016;20.002;2024-02-15T02:55:11;28.90;;;15.80;;
34920;SDS011;21128;50.016;20.002;2024-02-15T02:57:38;28.20;;;13.70;;
34920;SDS011;21128;50.016;20.002;2024-02-15T03:00:05;25.10;;;13.70;;
34920;SDS011;21128;50.016;20.002;2024-02-15T03:02:45;27.50;;;13.60;;
34920;SDS011;21128;50.016;20.002;2024-02-15T03:05:13;25.30;;;13.00;;
34920;SDS011;21128;50.016;20.002;2024-02-15T03:07:40;25.20;;;12.50;;
34920;SDS011;21128;50.016;20.002;2024-02-15T03:10:08;20.40;;;11.50;;
34920;SDS011;21128;50.016;20.002;2024-02-15T03:12:40;24.40;;;12.40;;
34920;SDS011;21128;50.016;20.002;2024-02-15T03:15:07;21.20;;;11.10;;
34920;SDS011;21128;50.016;20.002;2024-02-15T03:17:37;20.00;;;11.60;;
34920;SDS011;21128;50.016;20.002;2024-02-15T03:20:08;22.70;;;12.60;;
34920;SDS011;21128;50.016;20.002;2024-02-15T03:22:55;21.80;;;10.80;;
34920;SDS011;21128;50.016;20.002;2024-02-15T03:25:24;22.10;;;11.40;;
34920;SDS011;21128;50.016;20.002;2024-02-15T03:27:52;23.70;;;13.10;;
34920;SDS011;21128;50.016;20.002;2024-02-15T03:30:20;26.90;;;14.60;;
34920;SDS011;21128;50.016;20.002;2024-02-15T03:32:48;32.40;;;16.80;;
34920;SDS011;21128;50.016;20.002;2024-02-15T03:35:17;29.50;;;17.00;;
34920;SDS011;21128;50.016;20.002;2024-02-15T03:37:45;32.10;;;17.20;;
34920;SDS011;21128;50.016;20.002;2024-02-15T03:40:12;31.90;;;17.00;;
34920;SDS011;21128;50.016;20.002;2024-02-15T03:42:39;27.50;;;16.40;;
34920;SDS011;21128;50.016;20.002;2024-02-15T03:45:06;36.50;;;18.10;;
34920;SDS011;21128;50.016;20.002;2024-02-15T03:47:33;36.00;;;19.00;;
34920;SDS011;21128;50.016;20.002;2024-02-15T03:50:02;37.90;;;19.20;;
34920;SDS011;21128;50.016;20.002;2024-02-15T03:52:30;38.60;;;17.90;;
34920;SDS011;21128;50.016;20.002;2024-02-15T03:54:57;31.10;;;17.50;;
34920;SDS011;21128;50.016;20.002;2024-02-15T03:57:26;32.40;;;17.50;;
34920;SDS011;21128;50.016;20.002;2024-02-15T03:59:53;37.20;;;19.50;;
34920;SDS011;21128;50.016;20.002;2024-02-15T04:02:20;34.80;;;19.50;;
34920;SDS011;21128;50.016;20.002;2024-02-15T04:04:49;39.30;;;20.70;;
34920;SDS011;21128;50.016;20.002;2024-02-15T04:07:19;40.80;;;20.50;;
34920;SDS011;21128;50.016;20.002;2024-02-15T04:09:46;40.30;;;20.80;;
34920;SDS011;21128;50.016;20.002;2024-02-15T04:12:12;37.30;;;20.60;;
34920;SDS011;21128;50.016;20.002;2024-02-15T04:14:46;36.40;;;20.30;;
34920;SDS011;21128;50.016;20.002;2024-02-15T04:17:13;40.30;;;20.20;;
34920;SDS011;21128;50.016;20.002;2024-02-15T04:19:46;46.50;;;20.00;;
34920;SDS011;21128;50.016;20.002;2024-02-15T04:22:13;36.10;;;19.60;;
34920;SDS011;21128;50.016;20.002;2024-02-15T04:24:43;36.80;;;19.90;;
34920;SDS011;21128;50.016;20.002;2024-02-15T04:27:11;42.20;;;21.50;;
34920;SDS011;21128;50.016;20.002;2024-02-15T04:29:40;48.90;;;21.80;;
34920;SDS011;21128;50.016;20.002;2024-02-15T04:32:08;43.80;;;22.60;;
34920;SDS011;21128;50.016;20.002;2024-02-15T04:34:38;43.00;;;21.70;;
34920;SDS011;21128;50.016;20.002;2024-02-15T04:37:06;41.70;;;22.00;;
34920;SDS011;21128;50.016;20.002;2024-02-15T04:39:33;40.60;;;21.50;;
34920;SDS011;21128;50.016;20.002;2024-02-15T04:42:03;43.80;;;20.30;;
34920;SDS011;21128;50.016;20.002;2024-02-15T04:44:32;40.30;;;22.20;;
34920;SDS011;21128;50.016;20.002;2024-02-15T04:47:01;44.60;;;22.60;;
34920;SDS011;21128;50.016;20.002;2024-02-15T04:49:34;49.50;;;23.50;;
34920;SDS011;21128;50.016;20.002;2024-02-15T04:52:04;47.10;;;23.50;;
34920;SDS011;21128;50.016;20.002;2024-02-15T04:54:33;49.50;;;23.20;;
34920;SDS011;21128;50.016;20.002;2024-02-15T04:57:00;43.00;;;24.00;;
34920;SDS011;21128;50.016;20.002;2024-02-15T04:59:27;43.60;;;24.60;;
34920;SDS011;21128;50.016;20.002;2024-02-15T05:01:55;54.00;;;23.90;;
34920;SDS011;21128;50.016;20.002;2024-02-15T05:04:22;53.90;;;23.60;;
34920;SDS011;21128;50.016;20.002;2024-02-15T05:06:51;41.90;;;22.40;;
34920;SDS011;21128;50.016;20.002;2024-02-15T05:09:19;51.40;;;22.90;;
34920;SDS011;21128;50.016;20.002;2024-02-15T05:11:46;45.60;;;22.30;;
34920;SDS011;21128;50.016;20.002;2024-02-15T05:14:14;40.30;;;23.30;;
34920;SDS011;21128;50.016;20.002;2024-02-15T05:16:49;43.20;;;23.30;;
34920;SDS011;21128;50.016;20.002;2024-02-15T05:19:16;48.40;;;23.40;;
34920;SDS011;21128;50.016;20.002;2024-02-15T05:21:44;50.70;;;24.50;;
34920;SDS011;21128;50.016;20.002;2024-02-15T05:24:13;46.10;;;23.80;;
34920;SDS011;21128;50.016;20.002;2024-02-15T05:26:41;49.90;;;23.30;;
34920;SDS011;21128;50.016;20.002;2024-02-15T05:29:13;42.20;;;23.50;;
34920;SDS011;21128;50.016;20.002;2024-02-15T05:31:40;43.50;;;21.60;;
34920;SDS011;21128;50.016;20.002;2024-02-15T05:34:07;41.50;;;21.30;;
34920;SDS011;21128;50.016;20.002;2024-02-15T05:36:37;42.60;;;21.20;;
34920;SDS011;21128;50.016;20.002;2024-02-15T05:39:05;44.80;;;21.70;;
34920;SDS011;21128;50.016;20.002;2024-02-15T05:41:32;46.70;;;22.50;;
34920;SDS011;21128;50.016;20.002;2024-02-15T05:43:59;44.90;;;24.10;;
34920;SDS011;21128;50.016;20.002;2024-02-15T05:46:26;46.10;;;23.40;;
34920;SDS011;21128;50.016;20.002;2024-02-15T05:48:54;48.60;;;23.70;;
34920;SDS011;21128;50.016;20.002;2024-02-15T05:51:21;45.30;;;23.10;;
34920;SDS011;21128;50.016;20.002;2024-02-15T05:53:49;44.30;;;23.60;;
34920;SDS011;21128;50.016;20.002;2024-02-15T05:56:16;48.50;;;23.50;;
34920;SDS011;21128;50.016;20.002;2024-02-15T05:58:43;52.10;;;26.00;;
34920;SDS011;21128;50.016;20.002;2024-02-15T06:01:10;46.00;;;25.30;;
34920;SDS011;21128;50.016;20.002;2024-02-15T06:03:39;50.10;;;26.00;;
34920;SDS011;21128;50.016;20.002;2024-02-15T06:06:08;50.20;;;27.00;;
34920;SDS011;21128;50.016;20.002;2024-02-15T06:08:35;50.10;;;26.20;;
34920;SDS011;21128;50.016;20.002;2024-02-15T06:11:03;46.50;;;25.70;;
34920;SDS011;21128;50.016;20.002;2024-02-15T06:13:31;49.30;;;28.10;;
34920;SDS011;21128;50.016;20.002;2024-02-15T06:15:58;62.30;;;30.20;;
34920;SDS011;21128;50.016;20.002;2024-02-15T06:18:29;57.20;;;29.20;;
34920;SDS011;21128;50.016;20.002;2024-02-15T06:20:59;51.60;;;29.90;;
34920;SDS011;21128;50.016;20.002;2024-02-15T06:23:26;59.10;;;28.90;;
34920;SDS011;21128;50.016;20.002;2024-02-15T06:25:57;50.50;;;28.00;;
34920;SDS011;21128;50.016;20.002;2024-02-15T06:28:30;50.90;;;27.10;;
34920;SDS011;21128;50.016;20.002;2024-02-15T06:31:20;46.50;;;25.20;;
34920;SDS011;21128;50.016;20.002;2024-02-15T06:34:05;55.90;;;28.10;;
34920;SDS011;21128;50.016;20.002;2024-02-15T06:36:52;53.50;;;26.60;;
34920;SDS011;21128;50.016;20.002;2024-02-15T06:39:38;53.20;;;27.10;;
34920;SDS011;21128;50.016;20.002;2024-02-15T06:42:08;48.60;;;26.00;;
34920;SDS011;21128;50.016;20.002;2024-02-15T06:44:37;50.20;;;28.70;;
34920;SDS011;21128;50.016;20.002;2024-02-15T06:47:07;50.50;;;27.00;;
34920;SDS011;21128;50.016;20.002;2024-02-15T06:49:40;50.00;;;27.10;;
34920;SDS011;21128;50.016;20.002;2024-02-15T06:52:07;55.30;;;29.40;;
34920;SDS011;21128;50.016;20.002;2024-02-15T06:54:35;51.50;;;27.60;;
34920;SDS011;21128;50.016;20.002;2024-02-15T06:57:05;52.90;;;25.90;;
34920;SDS011;21128;50.016;20.002;2024-02-15T06:59:32;47.90;;;26.30;;
34920;SDS011;21128;50.016;20.002;2024-02-15T07:02:00;52.40;;;26.60;;
34920;SDS011;21128;50.016;20.002;2024-02-15T07:04:31;51.30;;;26.90;;
34920;SDS011;21128;50.016;20.002;2024-02-15T07:06:59;46.90;;;26.80;;
34920;SDS011;21128;50.016;20.002;2024-02-15T07:09:26;51.80;;;27.20;;
34920;SDS011;21128;50.016;20.002;2024-02-15T07:11:54;47.40;;;28.90;;
34920;SDS011;21128;50.016;20.002;2024-02-15T07:14:21;59.60;;;28.60;;
34920;SDS011;21128;50.016;20.002;2024-02-15T07:16:48;56.80;;;29.70;;
34920;SDS011;21128;50.016;20.002;2024-02-15T07:19:16;56.50;;;29.50;;
34920;SDS011;21128;50.016;20.002;2024-02-15T07:21:44;54.30;;;29.60;;
34920;SDS011;21128;50.016;20.002;2024-02-15T07:24:12;59.30;;;30.10;;
34920;SDS011;21128;50.016;20.002;2024-02-15T07:26:40;54.30;;;30.30;;
34920;SDS011;21128;50.016;20.002;2024-02-15T07:29:07;62.30;;;32.10;;
34920;SDS011;21128;50.016;20.002;2024-02-15T07:31:34;63.70;;;30.90;;
34920;SDS011;21128;50.016;20.002;2024-02-15T07:34:01;61.90;;;33.20;;
34920;SDS011;21128;50.016;20.002;2024-02-15T07:36:29;60.50;;;33.00;;
34920;SDS011;21128;50.016;20.002;2024-02-15T07:38:56;66.50;;;32.20;;
34920;SDS011;21128;50.016;20.002;2024-02-15T07:41:28;66.20;;;31.80;;
34920;SDS011;21128;50.016;20.002;2024-02-15T07:43:55;63.60;;;31.10;;
34920;SDS011;21128;50.016;20.002;2024-02-15T07:46:22;60.80;;;32.10;;
34920;SDS011;21128;50.016;20.002;2024-02-15T07:48:50;61.20;;;33.40;;
34920;SDS011;21128;50.016;20.002;2024-02-15T07:51:18;61.90;;;33.50;;
34920;SDS011;21128;50.016;20.002;2024-02-15T07:53:46;75.00;;;36.80;;
34920;SDS011;21128;50.016;20.002;2024-02-15T07:56:14;71.50;;;36.00;;
34920;SDS011;21128;50.016;20.002;2024-02-15T07:58:48;70.80;;;36.60;;
34920;SDS011;21128;50.016;20.002;2024-02-15T08:01:18;64.90;;;34.90;;
34920;SDS011;21128;50.016;20.002;2024-02-15T08:03:48;67.40;;;34.20;;
34920;SDS011;21128;50.016;20.002;2024-02-15T08:06:16;70.10;;;35.50;;
34920;SDS011;21128;50.016;20.002;2024-02-15T08:08:44;65.10;;;33.40;;
34920;SDS011;21128;50.016;20.002;2024-02-15T08:11:14;69.50;;;33.90;;
34920;SDS011;21128;50.016;20.002;2024-02-15T08:16:16;69.50;;;34.30;;
34920;SDS011;21128;50.016;20.002;2024-02-15T08:18:43;69.50;;;35.20;;
34920;SDS011;21128;50.016;20.002;2024-02-15T08:21:12;70.10;;;35.30;;
34920;SDS011;21128;50.016;20.002;2024-02-15T08:23:39;69.60;;;35.40;;
34920;SDS011;21128;50.016;20.002;2024-02-15T08:26:06;76.40;;;34.90;;
34920;SDS011;21128;50.016;20.002;2024-02-15T08:28:33;80.10;;;35.70;;
34920;SDS011;21128;50.016;20.002;2024-02-15T08:31:00;74.80;;;37.20;;
34920;SDS011;21128;50.016;20.002;2024-02-15T08:33:27;66.10;;;33.30;;
34920;SDS011;21128;50.016;20.002;2024-02-15T08:35:55;58.40;;;32.10;;
34920;SDS011;21128;50.016;20.002;2024-02-15T08:38:22;70.80;;;31.30;;
34920;SDS011;21128;50.016;20.002;2024-02-15T08:40:49;55.60;;;31.00;;
34920;SDS011;21128;50.016;20.002;2024-02-15T08:43:16;60.60;;;31.30;;
34920;SDS011;21128;50.016;20.002;2024-02-15T08:45:44;87.70;;;35.00;;
34920;SDS011;21128;50.016;20.002;2024-02-15T08:48:11;70.40;;;31.90;;
34920;SDS011;21128;50.016;20.002;2024-02-15T08:50:38;78.30;;;35.10;;
34920;SDS011;21128;50.016;20.002;2024-02-15T08:53:05;66.80;;;32.90;;
34920;SDS011;21128;50.016;20.002;2024-02-15T08:55:33;65.70;;;33.00;;
34920;SDS011;21128;50.016;20.002;2024-02-15T08:58:02;74.00;;;34.40;;
34920;SDS011;21128;50.016;20.002;2024-02-15T09:00:30;65.00;;;33.80;;
34920;SDS011;21128;50.016;20.002;2024-02-15T09:02:57;69.70;;;32.20;;
34920;SDS011;21128;50.016;20.002;2024-02-15T09:05:24;64.50;;;32.50;;
34920;SDS011;21128;50.016;20.002;2024-02-15T09:07:52;61.90;;;32.70;;
34920;SDS011;21128;50.016;20.002;2024-02-15T09:10:20;71.50;;;32.10;;
34920;SDS011;21128;50.016;20.002;2024-02-15T09:12:49;69.00;;;33.00;;
34920;SDS011;21128;50.016;20.002;2024-02-15T09:15:17;77.90;;;32.90;;
34920;SDS011;21128;50.016;20.002;2024-02-15T09:17:44;76.70;;;35.90;;
34920;SDS011;21128;50.016;20.002;2024-02-15T09:20:12;83.60;;;35.70;;
34920;SDS011;21128;50.016;20.002;2024-02-15T09:22:48;79.40;;;36.00;;
34920;SDS011;21128;50.016;20.002;2024-02-15T09:25:16;68.30;;;36.70;;
34920;SDS011;21128;50.016;20.002;2024-02-15T09:27:43;68.00;;;36.60;;
34920;SDS011;21128;50.016;20.002;2024-02-15T09:30:12;65.50;;;35.90;;
34920;SDS011;21128;50.016;20.002;2024-02-15T09:32:39;71.10;;;33.90;;
34920;SDS011;21128;50.016;20.002;2024-02-15T09:35:06;69.00;;;33.40;;
34920;SDS011;21128;50.016;20.002;2024-02-15T09:37:35;64.80;;;33.80;;
34920;SDS011;21128;50.016;20.002;2024-02-15T09:40:08;65.30;;;33.10;;
34920;SDS011;21128;50.016;20.002;2024-02-15T09:42:37;62.00;;;33.50;;
34920;SDS011;21128;50.016;20.002;2024-02-15T09:45:05;63.10;;;33.50;;
34920;SDS011;21128;50.016;20.002;2024-02-15T09:47:37;64.30;;;34.00;;
34920;SDS011;21128;50.016;20.002;2024-02-15T09:50:05;69.80;;;34.60;;
34920;SDS011;21128;50.016;20.002;2024-02-15T09:52:52;68.70;;;34.60;;
34920;SDS011;21128;50.016;20.002;2024-02-15T09:55:20;60.70;;;33.00;;
34920;SDS011;21128;50.016;20.002;2024-02-15T09:57:49;67.50;;;33.30;;
34920;SDS011;21128;50.016;20.002;2024-02-15T10:00:17;62.00;;;32.80;;
34920;SDS011;21128;50.016;20.002;2024-02-15T10:02:46;61.50;;;32.40;;
34920;SDS011;21128;50.016;20.002;2024-02-15T10:05:14;63.90;;;30.90;;
34920;SDS011;21128;50.016;20.002;2024-02-15T10:07:41;56.50;;;31.20;;
34920;SDS011;21128;50.016;20.002;2024-02-15T10:10:19;67.80;;;31.40;;
34920;SDS011;21128;50.016;20.002;2024-02-15T10:12:51;65.20;;;31.70;;
34920;SDS011;21128;50.016;20.002;2024-02-15T10:17:56;61.70;;;31.50;;
34920;SDS011;21128;50.016;20.002;2024-02-15T10:20:25;57.90;;;31.10;;
34920;SDS011;21128;50.016;20.002;2024-02-15T10:23:13;64.50;;;31.40;;
34920;SDS011;21128;50.016;20.002;2024-02-15T10:25:44;62.00;;;32.20;;
34920;SDS011;21128;50.016;20.002;2024-02-15T10:28:11;67.10;;;31.70;;
34920;SDS011;21128;50.016;20.002;2024-02-15T10:30:42;66.20;;;32.20;;
34920;SDS011;21128;50.016;20.002;2024-02-15T10:33:27;57.10;;;29.70;;
34920;SDS011;21128;50.016;20.002;2024-02-15T10:36:09;60.90;;;30.00;;
34920;SDS011;21128;50.016;20.002;2024-02-15T10:38:40;60.80;;;29.30;;
34920;SDS011;21128;50.016;20.002;2024-02-15T10:41:07;51.90;;;26.80;;
34920;SDS011;21128;50.016;20.002;2024-02-15T10:43:34;52.70;;;25.90;;
34920;SDS011;21128;50.016;20.002;2024-02-15T10:46:04;41.60;;;22.20;;
34920;SDS011;21128;50.016;20.002;2024-02-15T10:48:31;48.10;;;21.30;;
34920;SDS011;21128;50.016;20.002;2024-02-15T10:51:01;35.30;;;17.90;;
34920;SDS011;21128;50.016;20.002;2024-02-15T10:53:30;29.00;;;17.50;;
34920;SDS011;21128;50.016;20.002;2024-02-15T10:56:02;31.50;;;16.00;;
34920;SDS011;21128;50.016;20.002;2024-02-15T10:58:50;42.90;;;18.10;;
34920;SDS011;21128;50.016;20.002;2024-02-15T11:01:20;35.50;;;17.60;;
34920;SDS011;21128;50.016;20.002;2024-02-15T11:03:57;29.60;;;15.90;;
34920;SDS011;21128;50.016;20.002;2024-02-15T11:06:33;44.10;;;20.80;;
34920;SDS011;21128;50.016;20.002;2024-02-15T11:09:05;29.80;;;14.70;;
34920;SDS011;21128;50.016;20.002;2024-02-15T11:11:34;33.60;;;15.90;;
34920;SDS011;21128;50.016;20.002;2024-02-15T11:16:58;29.70;;;16.80;;
34920;SDS011;21128;50.016;20.002;2024-02-15T11:21:59;25.20;;;12.40;;
34920;SDS011;21128;50.016;20.002;2024-02-15T11:24:30;18.80;;;9.00;;
34920;SDS011;21128;50.016;20.002;2024-02-15T11:26:59;15.70;;;7.10;;
34920;SDS011;21128;50.016;20.002;2024-02-15T11:29:49;13.40;;;5.40;;
34920;SDS011;21128;50.016;20.002;2024-02-15T11:32:36;9.30;;;4.10;;
34920;SDS011;21128;50.016;20.002;2024-02-15T11:35:09;8.70;;;4.40;;
34920;SDS011;21128;50.016;20.002;2024-02-15T11:37:50;12.60;;;5.70;;
34920;SDS011;21128;50.016;20.002;2024-02-15T11:40:17;17.20;;;6.90;;
34920;SDS011;21128;50.016;20.002;2024-02-15T11:42:54;9.00;;;4.60;;
34920;SDS011;21128;50.016;20.002;2024-02-15T11:45:31;11.80;;;4.10;;
34920;SDS011;21128;50.016;20.002;2024-02-15T11:48:00;7.20;;;4.70;;
34920;SDS011;21128;50.016;20.002;2024-02-15T11:50:28;6.40;;;3.30;;
34920;SDS011;21128;50.016;20.002;2024-02-15T11:53:01;7.70;;;4.10;;
34920;SDS011;21128;50.016;20.002;2024-02-15T11:55:36;6.70;;;2.60;;
34920;SDS011;21128;50.016;20.002;2024-02-15T11:58:05;9.20;;;2.80;;
34920;SDS011;21128;50.016;20.002;2024-02-15T12:00:35;4.30;;;2.60;;
34920;SDS011;21128;50.016;20.002;2024-02-15T12:03:22;5.20;;;2.40;;
34920;SDS011;21128;50.016;20.002;2024-02-15T12:06:17;4.10;;;2.80;;
34920;SDS011;21128;50.016;20.002;2024-02-15T12:09:03;6.90;;;2.80;;
34920;SDS011;21128;50.016;20.002;2024-02-15T12:11:57;6.10;;;2.70;;
34920;SDS011;21128;50.016;20.002;2024-02-15T12:14:43;8.60;;;2.90;;
34920;SDS011;21128;50.016;20.002;2024-02-15T12:17:29;7.10;;;2.90;;
34920;SDS011;21128;50.016;20.002;2024-02-15T12:20:14;12.00;;;3.00;;
34920;SDS011;21128;50.016;20.002;2024-02-15T12:22:43;5.60;;;2.50;;
34920;SDS011;21128;50.016;20.002;2024-02-15T12:25:14;5.80;;;2.50;;
34920;SDS011;21128;50.016;20.002;2024-02-15T12:27:45;5.10;;;2.90;;
34920;SDS011;21128;50.016;20.002;2024-02-15T12:30:19;3.60;;;2.60;;
34920;SDS011;21128;50.016;20.002;2024-02-15T12:32:49;3.70;;;2.20;;
34920;SDS011;21128;50.016;20.002;2024-02-15T12:35:19;6.60;;;2.90;;
34920;SDS011;21128;50.016;20.002;2024-02-15T12:37:49;4.60;;;2.90;;
34920;SDS011;21128;50.016;20.002;2024-02-15T12:40:35;4.00;;;2.40;;
34920;SDS011;21128;50.016;20.002;2024-02-15T12:43:06;5.20;;;2.60;;
34920;SDS011;21128;50.016;20.002;2024-02-15T12:45:36;5.80;;;2.40;;
34920;SDS011;21128;50.016;20.002;2024-02-15T12:48:04;5.10;;;2.90;;
34920;SDS011;21128;50.016;20.002;2024-02-15T12:50:32;4.30;;;2.60;;
34920;SDS011;21128;50.016;20.002;2024-02-15T12:53:00;5.20;;;2.60;;
34920;SDS011;21128;50.016;20.002;2024-02-15T12:55:33;6.20;;;3.20;;
34920;SDS011;21128;50.016;20.002;2024-02-15T12:58:01;5.30;;;2.70;;
34920;SDS011;21128;50.016;20.002;2024-02-15T13:00:31;4.70;;;2.90;;
34920;SDS011;21128;50.016;20.002;2024-02-15T13:03:01;3.90;;;2.30;;
34920;SDS011;21128;50.016;20.002;2024-02-15T13:05:31;4.80;;;2.40;;
34920;SDS011;21128;50.016;20.002;2024-02-15T13:07:58;9.50;;;3.10;;
34920;SDS011;21128;50.016;20.002;2024-02-15T13:10:25;5.80;;;3.00;;
34920;SDS011;21128;50.016;20.002;2024-02-15T13:12:54;5.00;;;2.50;;
34920;SDS011;21128;50.016;20.002;2024-02-15T13:15:22;6.30;;;2.80;;
34920;SDS011;21128;50.016;20.002;2024-02-15T13:17:54;7.30;;;3.00;;
34920;SDS011;21128;50.016;20.002;2024-02-15T13:20:22;5.60;;;2.80;;
34920;SDS011;21128;50.016;20.002;2024-02-15T13:23:00;6.00;;;3.40;;
34920;SDS011;21128;50.016;20.002;2024-02-15T13:25:46;6.20;;;3.50;;
34920;SDS011;21128;50.016;20.002;2024-02-15T13:28:15;10.90;;;3.40;;
34920;SDS011;21128;50.016;20.002;2024-02-15T13:30:42;6.70;;;3.30;;
34920;SDS011;21128;50.016;20.002;2024-02-15T13:33:12;5.00;;;3.20;;
34920;SDS011;21128;50.016;20.002;2024-02-15T13:35:42;6.10;;;3.20;;
34920;SDS011;21128;50.016;20.002;2024-02-15T13:38:09;6.60;;;3.30;;
34920;SDS011;21128;50.016;20.002;2024-02-15T13:40:41;7.50;;;3.50;;
34920;SDS011;21128;50.016;20.002;2024-02-15T13:43:08;8.60;;;3.50;;
34920;SDS011;21128;50.016;20.002;2024-02-15T13:48:06;13.20;;;4.00;;
34920;SDS011;21128;50.016;20.002;2024-02-15T13:50:37;14.80;;;3.90;;
34920;SDS011;21128;50.016;20.002;2024-02-15T13:53:05;6.50;;;3.80;;
34920;SDS011;21128;50.016;20.002;2024-02-15T13:55:32;8.50;;;3.60;;
34920;SDS011;21128;50.016;20.002;2024-02-15T13:58:00;15.10;;;4.00;;
34920;SDS011;21128;50.016;20.002;2024-02-15T14:00:27;10.20;;;3.90;;
34920;SDS011;21128;50.016;20.002;2024-02-15T14:03:00;8.80;;;3.80;;
34920;SDS011;21128;50.016;20.002;2024-02-15T14:05:30;17.90;;;4.50;;
34920;SDS011;21128;50.016;20.002;2024-02-15T14:07:58;9.90;;;4.50;;
34920;SDS011;21128;50.016;20.002;2024-02-15T14:10:27;13.10;;;4.00;;
34920;SDS011;21128;50.016;20.002;2024-02-15T14:12:55;9.80;;;3.60;;
34920;SDS011;21128;50.016;20.002;2024-02-15T14:15:24;16.40;;;4.70;;
34920;SDS011;21128;50.016;20.002;2024-02-15T14:17:52;12.20;;;4.00;;
34920;SDS011;21128;50.016;20.002;2024-02-15T14:20:19;15.10;;;3.90;;
34920;SDS011;21128;50.016;20.002;2024-02-15T14:22:48;10.60;;;4.40;;
34920;SDS011;21128;50.016;20.002;2024-02-15T14:25:22;15.50;;;3.80;;
34920;SDS011;21128;50.016;20.002;2024-02-15T14:27:50;8.90;;;4.00;;
34920;SDS011;21128;50.016;20.002;2024-02-15T14:30:16;6.60;;;3.50;;
34920;SDS011;21128;50.016;20.002;2024-02-15T14:33:02;10.60;;;3.70;;
34920;SDS011;21128;50.016;20.002;2024-02-15T14:35:37;6.20;;;3.90;;
34920;SDS011;21128;50.016;20.002;2024-02-15T14:38:06;10.80;;;4.20;;
34920;SDS011;21128;50.016;20.002;2024-02-15T14:40:42;9.80;;;4.60;;